Time;durP1;ratioP1;P1;durP2;ratioP2;P2;SDS_P1;SDS_P2;PMS_P1;PMS_P2;Temp;Humidity;BMP_temperature;BMP_pressure;BME280_temperature;BME280_humidity;BME280_pressure;Samples;Min_cycle;Max_cycle;Signal;HPM_P1;HPM_P2
2022/07/05 00:02:13;;;;;;;;;;;615.30;2432.00;;;;;;5089854;28;19931;-66
2022/07/05 00:04:38;;;;;;;;;;;615.30;2432.00;;;;;;5093070;28;19915;-66
2022/07/05 00:07:19;;;;;;;;;;;615.30;2432.00;;;;;;5093735;28;19908;-66
2022/07/05 00:09:51;;;;;;;;;;;615.30;2432.00;;;;;;5093465;28;19908;-66
2022/07/05 00:12:18;;;;;;;;;;;615.30;2432.00;;;;;;5093433;28;19912;-64
2022/07/05 00:14:44;;;;;;;;;;;615.30;2432.00;;;;;;5093392;28;20417;-61
2022/07/05 00:17:10;;;;;;;;;;;615.10;2432.00;;;;;;5093472;28;20392;-65
2022/07/05 00:19:36;;;;;;;;;;;615.10;2432.00;;;;;;5093473;28;19909;-63
2022/07/05 00:22:01;;;;;;;;;;;615.10;2432.00;;;;;;5093577;28;19916;-64
2022/07/05 00:24:28;;;;;;;;;;;615.10;2432.00;;;;;;5093360;28;19961;-66
2022/07/05 00:26:53;;;;;;;;;;;615.00;2432.00;;;;;;5093405;28;19915;-63
2022/07/05 00:29:19;;;;;;;;;;;615.00;2432.00;;;;;;5091582;28;19959;-64
2022/07/05 00:31:44;;;;;;;;;;;615.00;2432.00;;;;;;5092995;28;19916;-63
2022/07/05 00:34:10;;;;;;;;;;;615.00;2432.00;;;;;;5093229;28;19914;-62
2022/07/05 00:36:35;;;;;;;;;;;615.00;2432.00;;;;;;5092950;28;19931;-61
2022/07/05 00:39:01;;;;;;;;;;;615.00;2432.00;;;;;;5093406;28;19912;-60
2022/07/05 00:41:27;;;;;;;;;;;615.00;2432.00;;;;;;5092898;28;19916;-62
2022/07/05 00:43:59;;;;;;;;;;;615.00;2432.00;;;;;;5092610;28;20384;-60
2022/07/05 00:46:25;;;;;;;;;;;614.90;2432.00;;;;;;5089633;28;20381;-60
2022/07/05 00:48:51;;;;;;;;;;;614.80;2432.00;;;;;;5090611;28;19920;-64
2022/07/05 00:51:17;;;;;;;;;;;614.90;2432.00;;;;;;5091073;28;19977;-64
2022/07/05 00:53:45;;;;;;;;;;;614.90;2432.00;;;;;;5100396;28;19920;-64
2022/07/05 00:56:11;;;;;;;;;;;614.90;2432.00;;;;;;5100665;28;19951;-64
2022/07/05 00:58:37;;;;;;;;;;;614.90;2432.00;;;;;;5102687;28;20007;-59
2022/07/05 01:01:03;;;;;;;;;;;614.90;2432.00;;;;;;5101157;28;20061;-62
2022/07/05 01:03:29;;;;;;;;;;;614.80;2432.00;;;;;;5103258;28;20297;-64
2022/07/05 01:05:55;;;;;;;;;;;614.80;2432.00;;;;;;5100383;28;19920;-62
2022/07/05 01:08:22;;;;;;;;;;;614.80;2432.00;;;;;;5100712;28;19912;-65
2022/07/05 01:10:47;;;;;;;;;;;614.80;2432.00;;;;;;5103089;28;19912;-65
2022/07/05 01:13:14;;;;;;;;;;;614.80;2432.00;;;;;;5102120;28;20471;-65
2022/07/05 01:15:40;;;;;;;;;;;614.80;2432.00;;;;;;5101221;28;19915;-64
2022/07/05 01:18:06;;;;;;;;;;;614.80;2432.00;;;;;;5102159;28;19991;-62
2022/07/05 01:20:32;;;;;;;;;;;614.80;2432.00;;;;;;5106831;28;20006;-65
2022/07/05 01:22:59;;;;;;;;;;;614.80;2432.00;;;;;;5112564;28;19915;-63
2022/07/05 01:25:26;;;;;;;;;;;614.70;2432.00;;;;;;5112520;28;19907;-66
2022/07/05 01:27:52;;;;;;;;;;;614.70;2432.00;;;;;;5112627;28;19954;-66
2022/07/05 01:30:18;;;;;;;;;;;614.70;2432.00;;;;;;5112326;28;19911;-62
2022/07/05 01:32:44;;;;;;;;;;;614.70;2432.00;;;;;;5112321;28;19981;-61
2022/07/05 01:35:10;;;;;;;;;;;614.70;2432.00;;;;;;5112658;28;20345;-65
2022/07/05 01:37:36;;;;;;;;;;;614.60;2432.00;;;;;;5112504;28;19950;-64
2022/07/05 01:40:02;;;;;;;;;;;614.60;2432.00;;;;;;5112288;28;19911;-65
2022/07/05 01:42:28;;;;;;;;;;;614.70;2432.00;;;;;;5112232;28;19908;-65
2022/07/05 01:44:53;;;;;;;;;;;614.60;2432.00;;;;;;5112301;28;20310;-65
2022/07/05 01:47:19;;;;;;;;;;;614.50;2432.00;;;;;;5112501;28;19907;-66
2022/07/05 01:49:47;;;;;;;;;;;614.60;2432.00;;;;;;5112010;28;20255;-67
2022/07/05 01:52:13;;;;;;;;;;;614.60;2432.00;;;;;;5112134;28;19908;-65
2022/07/05 01:54:39;;;;;;;;;;;614.50;2432.00;;;;;;5112137;28;20345;-66
2022/07/05 01:57:05;;;;;;;;;;;614.50;2432.00;;;;;;5110673;28;19961;-65
2022/07/05 01:59:33;;;;;;;;;;;614.40;2432.00;;;;;;5111818;28;20354;-66
2022/07/05 02:01:58;;;;;;;;;;;614.40;2432.00;;;;;;5111848;28;19926;-66
2022/07/05 02:04:24;;;;;;;;;;;614.40;2432.00;;;;;;5111638;28;19991;-62
2022/07/05 02:06:50;;;;;;;;;;;589.70;2432.00;;;;;;5111933;28;19914;-62
2022/07/05 02:09:16;;;;;;;;;;;614.40;2432.00;;;;;;5111671;28;19908;-63
2022/07/05 02:11:41;;;;;;;;;;;614.40;2432.00;;;;;;5111966;28;19954;-63
2022/07/05 02:14:07;;;;;;;;;;;589.70;2432.00;;;;;;5111717;28;19943;-62
2022/07/05 02:16:33;;;;;;;;;;;589.70;2432.00;;;;;;5111641;28;20254;-63
2022/07/05 02:18:58;;;;;;;;;;;589.70;2432.00;;;;;;5111756;28;19933;-64
2022/07/05 02:21:24;;;;;;;;;;;589.70;2432.00;;;;;;5111347;28;20285;-62
2022/07/05 02:23:49;;;;;;;;;;;589.60;2432.00;;;;;;5111629;28;20029;-62
2022/07/05 02:26:15;;;;;;;;;;;589.50;2432.00;;;;;;5110776;28;19915;-63
2022/07/05 02:28:41;;;;;;;;;;;589.40;2432.00;;;;;;5111646;28;20273;-62
2022/07/05 02:31:07;;;;;;;;;;;589.40;2432.00;;;;;;5111404;28;19916;-61
2022/07/05 02:33:32;;;;;;;;;;;589.20;2432.00;;;;;;5111728;28;19916;-62
2022/07/05 02:36:05;;;;;;;;;;;589.10;2432.00;;;;;;5111288;28;19908;-62
2022/07/05 02:38:30;;;;;;;;;;;589.20;2432.00;;;;;;5111378;28;20349;-64
2022/07/05 02:40:56;;;;;;;;;;;589.30;2432.00;;;;;;5111002;28;19923;-63
2022/07/05 02:43:21;;;;;;;;;;;589.30;2432.00;;;;;;5111319;28;19912;-63
2022/07/05 02:45:47;;;;;;;;;;;589.40;2432.00;;;;;;5111214;28;19933;-62
2022/07/05 02:48:12;;;;;;;;;;;589.50;2432.00;;;;;;5111481;28;20425;-64
2022/07/05 02:50:38;;;;;;;;;;;589.40;2432.00;;;;;;5111578;28;19908;-65
2022/07/05 02:53:04;;;;;;;;;;;589.40;2432.00;;;;;;5111172;27;19953;-61
2022/07/05 02:55:29;;;;;;;;;;;589.40;2432.00;;;;;;5111238;28;19911;-63
2022/07/05 02:57:55;;;;;;;;;;;589.40;2432.00;;;;;;5110863;28;19908;-63
2022/07/05 03:00:21;;;;;;;;;;;589.50;2432.00;;;;;;5110766;28;19924;-61
2022/07/05 03:02:47;;;;;;;;;;;589.50;2432.00;;;;;;5111014;28;19923;-62
2022/07/05 03:05:12;;;;;;;;;;;589.50;2432.00;;;;;;5111233;28;19992;-62
2022/07/05 03:07:38;;;;;;;;;;;589.50;2432.00;;;;;;5110941;28;19961;-63
2022/07/05 03:10:03;;;;;;;;;;;589.50;2432.00;;;;;;5110945;28;20353;-62
2022/07/05 03:12:29;;;;;;;;;;;589.50;2432.00;;;;;;5111098;28;19934;-63
2022/07/05 03:14:54;;;;;;;;;;;589.50;2432.00;;;;;;5110737;28;19908;-63
2022/07/05 03:17:20;;;;;;;;;;;589.50;2432.00;;;;;;5109262;28;19934;-61
2022/07/05 03:19:46;;;;;;;;;;;589.60;2432.00;;;;;;5110771;28;19907;-62
2022/07/05 03:22:11;;;;;;;;;;;589.60;2432.00;;;;;;5110827;28;19920;-63
2022/07/05 03:24:37;;;;;;;;;;;589.60;2432.00;;;;;;5110947;28;19943;-60
2022/07/05 03:27:02;;;;;;;;;;;589.70;2432.00;;;;;;5110966;28;19907;-63
2022/07/05 03:29:28;;;;;;;;;;;589.40;2432.00;;;;;;5110364;28;19956;-63
2022/07/05 03:31:53;;;;;;;;;;;614.40;2432.00;;;;;;5110457;28;19912;-61
2022/07/05 03:34:19;;;;;;;;;;;614.50;2432.00;;;;;;5110747;28;19970;-62
2022/07/05 03:36:44;;;;;;;;;;;614.50;2432.00;;;;;;5110575;28;19908;-62
2022/07/05 03:39:10;;;;;;;;;;;614.60;2432.00;;;;;;5114537;28;19908;-61
2022/07/05 03:41:36;;;;;;;;;;;614.60;2432.00;;;;;;5114571;28;19967;-61
2022/07/05 03:44:01;;;;;;;;;;;614.70;2432.00;;;;;;5114810;28;19947;-62
2022/07/05 03:46:27;;;;;;;;;;;614.80;2432.00;;;;;;5114376;28;19953;-61
2022/07/05 03:48:52;;;;;;;;;;;614.80;2432.00;;;;;;5114807;28;19908;-64
2022/07/05 03:51:18;;;;;;;;;;;614.80;2432.00;;;;;;5114533;27;19908;-63
2022/07/05 03:53:43;;;;;;;;;;;614.80;2432.00;;;;;;5114356;28;20303;-62
2022/07/05 03:56:09;;;;;;;;;;;614.80;2432.00;;;;;;5114706;27;19908;-61
2022/07/05 03:58:34;;;;;;;;;;;614.80;2432.00;;;;;;5114357;27;19908;-61
2022/07/05 04:01:00;;;;;;;;;;;614.90;2432.00;;;;;;5114095;28;19927;-62
2022/07/05 04:03:26;;;;;;;;;;;615.10;2432.00;;;;;;5114107;28;19965;-62
2022/07/05 04:05:51;;;;;;;;;;;615.30;2432.00;;;;;;5114249;28;20395;-63
2022/07/05 04:08:17;;;;;;;;;;;640.10;2432.00;;;;;;5113915;27;19956;-64
2022/07/05 04:10:42;;;;;;;;;;;640.30;2432.00;;;;;;5114277;28;19908;-61
2022/07/05 04:13:08;;;;;;;;;;;640.50;2432.00;;;;;;5114274;27;20365;-61
2022/07/05 04:15:34;;;;;;;;;;;640.60;2432.00;;;;;;5113999;28;20376;-61
2022/07/05 04:17:59;;;;;;;;;;;640.70;2432.00;;;;;;5114027;28;19912;-63
2022/07/05 04:20:25;;;;;;;;;;;640.90;2432.00;;;;;;5113730;28;20323;-61
2022/07/05 04:22:51;;;;;;;;;;;665.70;2432.00;;;;;;5114216;28;19915;-61
2022/07/05 04:25:17;;;;;;;;;;;665.70;2432.00;;;;;;5113509;28;20282;-61
2022/07/05 04:27:46;;;;;;;;;;;665.90;2432.00;;;;;;5113770;28;19907;-62
2022/07/05 04:30:12;;;;;;;;;;;666.00;2432.00;;;;;;5113720;28;20376;-61
2022/07/05 04:32:37;;;;;;;;;;;666.10;2432.00;;;;;;5113607;28;19916;-60
2022/07/05 04:35:03;;;;;;;;;;;666.30;2432.00;;;;;;5114013;28;20362;-62
2022/07/05 04:37:29;;;;;;;;;;;691.30;2432.00;;;;;;5113882;28;19919;-64
2022/07/05 04:39:54;;;;;;;;;;;742.50;2406.40;;;;;;5113541;28;20358;-61
2022/07/05 04:42:20;;;;;;;;;;;768.70;2099.20;;;;;;5113310;28;19923;-62
2022/07/05 04:44:45;;;;;;;;;;;819.30;1920.00;;;;;;5113425;28;19908;-63
2022/07/05 04:47:11;;;;;;;;;;;794.40;1894.40;;;;;;5113510;28;20220;-63
2022/07/05 04:49:36;;;;;;;;;;;794.20;1894.40;;;;;;5112731;28;19908;-62
2022/07/05 04:52:02;;;;;;;;;;;794.20;1894.40;;;;;;5113405;28;19969;-62
2022/07/05 04:54:27;;;;;;;;;;;844.80;1766.40;;;;;;5113224;28;19907;-62
2022/07/05 04:56:53;;;;;;;;;;;870.60;1664.00;;;;;;5113255;28;19915;-61
2022/07/05 04:59:19;;;;;;;;;;;871.30;1587.20;;;;;;5113061;28;19908;-64
2022/07/05 05:01:44;;;;;;;;;;;896.60;1536.00;;;;;;5112912;28;19919;-62
2022/07/05 05:04:10;;;;;;;;;;;896.90;1510.40;;;;;;5111982;28;19915;-62
2022/07/05 05:06:35;;;;;;;;;;;921.60;1536.00;;;;;;5092476;28;19912;-62
2022/07/05 05:09:01;;;;;;;;;;;922.00;1484.80;;;;;;5092797;28;19912;-64
2022/07/05 05:11:27;;;;;;;;;;;922.50;1484.80;;;;;;5092495;28;19908;-63
2022/07/05 05:13:52;;;;;;;;;;;947.80;1408.00;;;;;;5092525;28;19990;-63
2022/07/05 05:16:18;;;;;;;;;;;948.10;1408.00;;;;;;5092552;28;19908;-64
2022/07/05 05:18:43;;;;;;;;;;;973.20;1382.40;;;;;;5092149;28;19908;-63
2022/07/05 05:21:09;;;;;;;;;;;998.80;1356.80;;;;;;5092204;28;20429;-63
2022/07/05 05:23:35;;;;;;;;;;;999.00;1305.60;;;;;;5092490;28;19915;-64
2022/07/05 05:26:00;;;;;;;;;;;1024.60;1254.40;;;;;;5092369;28;19908;-66
2022/07/05 05:28:26;;;;;;;;;;;1050.00;1254.40;;;;;;5092089;28;19908;-66
2022/07/05 05:30:51;;;;;;;;;;;1050.20;1254.40;;;;;;5092128;28;19923;-64
2022/07/05 05:33:17;;;;;;;;;;;1050.50;1228.80;;;;;;5091913;28;19916;-65
2022/07/05 05:35:42;;;;;;;;;;;1075.60;1203.20;;;;;;5092090;28;20030;-62
2022/07/05 05:38:08;;;;;;;;;;;1075.60;1177.60;;;;;;5092219;28;19908;-63
2022/07/05 05:40:34;;;;;;;;;;;1075.20;1177.60;;;;;;5091663;28;19922;-65
2022/07/05 05:43:00;;;;;;;;;;;1101.10;1177.60;;;;;;5092125;28;19990;-66
2022/07/05 05:45:26;;;;;;;;;;;1101.50;1152.00;;;;;;5091693;28;19916;-65
2022/07/05 05:47:51;;;;;;;;;;;1101.50;1126.40;;;;;;5091980;28;19966;-63
2022/07/05 05:50:26;;;;;;;;;;;1101.70;1126.40;;;;;;5091688;28;19912;-67
2022/07/05 05:52:51;;;;;;;;;;;1127.30;1100.80;;;;;;5087719;28;20366;-65
2022/07/05 05:55:17;;;;;;;;;;;1127.10;1126.40;;;;;;5091302;28;19938;-66
2022/07/05 05:57:43;;;;;;;;;;;;;;;;;;5091731;28;19918;-67
2022/07/05 06:00:11;;;;;;;;;;;1152.60;1075.20;;;;;;5091609;28;19920;-67
2022/07/05 06:02:36;;;;;;;;;;;1203.20;1049.60;;;;;;5090721;28;19920;-66
2022/07/05 06:05:02;;;;;;;;;;;1203.20;1024.00;;;;;;5091581;28;20333;-66
2022/07/05 06:07:28;;;;;;;;;;;1203.20;1024.00;;;;;;5091629;28;19943;-63
2022/07/05 06:09:53;;;;;;;;;;;1203.90;998.40;;;;;;5091258;28;20010;-65
2022/07/05 06:12:19;;;;;;;;;;;1228.90;998.40;;;;;;5091486;28;19908;-66
2022/07/05 06:14:44;;;;;;;;;;;1229.30;972.80;;;;;;5091206;28;19916;-65
2022/07/05 06:17:10;;;;;;;;;;;1229.30;998.40;;;;;;5091269;28;19962;-65
2022/07/05 06:19:36;;;;;;;;;;;1228.90;972.80;;;;;;5091352;28;20323;-64
2022/07/05 06:22:01;;;;;;;;;;;1203.80;947.20;;;;;;5090432;28;20332;-64
2022/07/05 06:24:27;;;;;;;;;;;1229.30;972.80;;;;;;5090840;28;20255;-68
2022/07/05 06:26:53;;;;;;;;;;;;;;;;;;5091320;28;19948;-67
2022/07/05 06:29:18;;;;;;;;;;;1254.60;947.20;;;;;;5091048;28;19912;-67
2022/07/05 06:31:44;;;;;;;;;;;1254.80;947.20;;;;;;5090989;28;20452;-67
2022/07/05 06:34:09;;;;;;;;;;;1254.80;947.20;;;;;;5091015;28;19909;-68
2022/07/05 06:36:35;;;;;;;;;;;1255.00;921.60;;;;;;5091006;28;19943;-63
2022/07/05 06:39:01;;;;;;;;;;;1229.50;947.20;;;;;;5089750;28;20409;-68
2022/07/05 06:41:26;;;;;;;;;;;1229.20;947.20;;;;;;5090689;28;20366;-62
2022/07/05 06:43:52;;;;;;;;;;;1203.70;972.80;;;;;;5091159;28;19961;-63
2022/07/05 06:46:17;;;;;;;;;;;1228.80;972.80;;;;;;5090764;28;19947;-67
2022/07/05 06:48:43;;;;;;;;;;;1228.80;972.80;;;;;;5090680;28;19908;-61
2022/07/05 06:51:08;;;;;;;;;;;1229.40;947.20;;;;;;5090932;28;19915;-68
2022/07/05 06:53:34;;;;;;;;;;;1203.60;972.80;;;;;;5090722;28;20316;-68
2022/07/05 06:55:59;;;;;;;;;;;1203.40;998.40;;;;;;5090781;28;19912;-68
2022/07/05 06:58:25;;;;;;;;;;;1203.30;1024.00;;;;;;5090753;28;19915;-69
2022/07/05 07:00:51;;;;;;;;;;;1203.80;998.40;;;;;;5090405;28;19924;-68
2022/07/05 07:03:16;;;;;;;;;;;1203.90;972.80;;;;;;5090445;28;19923;-69
2022/07/05 07:05:42;;;;;;;;;;;1203.80;972.80;;;;;;5090617;28;20270;-62
2022/07/05 07:10:52;;;;;;;;;;;1177.70;1024.00;;;;;;5090370;28;19919;-63
2022/07/05 07:13:19;;;;;;;;;;;1203.80;972.80;;;;;;5090206;28;20340;-67
2022/07/05 07:15:46;;;;;;;;;;;1254.60;947.20;;;;;;5089385;28;19908;-67
2022/07/05 07:18:12;;;;;;;;;;;1203.90;972.80;;;;;;5090511;28;19919;-62
2022/07/05 07:20:37;;;;;;;;;;;1229.00;972.80;;;;;;5090440;28;19916;-67
2022/07/05 07:23:03;;;;;;;;;;;1229.30;972.80;;;;;;5090468;28;19908;-67
2022/07/05 07:25:28;;;;;;;;;;;1228.80;972.80;;;;;;5090726;28;19912;-68
2022/07/05 07:27:55;;;;;;;;;;;1254.60;947.20;;;;;;5090361;28;19908;-68
2022/07/05 07:30:22;;;;;;;;;;;1255.00;947.20;;;;;;5090335;28;19913;-67
2022/07/05 07:32:47;;;;;;;;;;;1229.70;947.20;;;;;;5090451;28;20270;-62
2022/07/05 07:35:13;;;;;;;;;;;1306.00;896.00;;;;;;5090076;28;19908;-64
2022/07/05 07:37:39;;;;;;;;;;;1280.20;896.00;;;;;;5090594;28;19908;-65
2022/07/05 07:40:05;;;;;;;;;;;1229.40;947.20;;;;;;5090304;28;20468;-67
2022/07/05 07:42:31;;;;;;;;;;;1254.40;947.20;;;;;;5090146;28;20362;-67
2022/07/05 07:44:57;;;;;;;;;;;1280.70;896.00;;;;;;5090178;28;19915;-68
2022/07/05 07:47:22;;;;;;;;;;;1254.40;972.80;;;;;;5090236;28;20269;-66
2022/07/05 07:49:48;;;;;;;;;;;1255.30;921.60;;;;;;5090091;28;19909;-68
2022/07/05 07:52:14;;;;;;;;;;;1280.90;896.00;;;;;;5090048;28;19908;-63
2022/07/05 07:54:40;;;;;;;;;;;1280.00;921.60;;;;;;5090291;28;19947;-62
2022/07/05 07:57:05;;;;;;;;;;;1305.70;896.00;;;;;;5090286;28;19908;-69
2022/07/05 07:59:31;;;;;;;;;;;1255.30;921.60;;;;;;5089944;28;19955;-67
2022/07/05 08:01:57;;;;;;;;;;;1306.30;870.40;;;;;;5089462;28;19923;-64
2022/07/05 08:04:22;;;;;;;;;;;1280.40;921.60;;;;;;5090237;28;19987;-69
2022/07/05 08:06:48;;;;;;;;;;;1305.70;870.40;;;;;;5089870;28;20377;-64
2022/07/05 08:09:13;;;;;;;;;;;1229.20;972.80;;;;;;5090007;28;20354;-63
2022/07/05 08:11:39;;;;;;;;;;;1229.70;947.20;;;;;;5090303;28;19981;-64
2022/07/05 08:14:05;;;;;;;;;;;1204.10;947.20;;;;;;5089909;28;19908;-66
2022/07/05 08:16:30;;;;;;;;;;;1178.10;972.80;;;;;;5090032;28;19908;-66
2022/07/05 08:21:40;;;;;;;;;;;1126.40;1100.80;;;;;;5089521;28;19923;-62
2022/07/05 08:24:12;;;;;;;;;;;1076.10;1075.20;;;;;;5089928;28;19909;-66
2022/07/05 08:26:38;;;;;;;;;;;1075.80;1100.80;;;;;;5093364;28;19948;-68
2022/07/05 08:29:05;;;;;;;;;;;1050.40;1152.00;;;;;;5093143;28;19916;-62
2022/07/05 08:31:32;;;;;;;;;;;1049.60;1177.60;;;;;;5093520;28;19918;-68
2022/07/05 08:33:58;;;;;;;;;;;1024.00;1203.20;;;;;;5093056;28;19916;-62
2022/07/05 08:36:24;;;;;;;;;;;998.60;1228.80;;;;;;5093002;28;20463;-60
2022/07/05 08:38:50;;;;;;;;;;;973.30;1280.00;;;;;;5093296;28;19951;-62
2022/07/05 08:41:17;;;;;;;;;;;973.10;1280.00;;;;;;5092910;28;19917;-67
2022/07/05 08:43:44;;;;;;;;;;;973.20;1305.60;;;;;;5093386;28;19915;-62
2022/07/05 08:46:11;;;;;;;;;;;973.20;1280.00;;;;;;5093285;28;19953;-62
2022/07/05 08:48:43;;;;;;;;;;;973.20;1280.00;;;;;;5093099;28;19915;-61
2022/07/05 08:51:13;;;;;;;;;;;972.80;1305.60;;;;;;5093112;28;19971;-67
2022/07/05 08:53:39;;;;;;;;;;;973.70;1280.00;;;;;;5093118;28;19934;-69
2022/07/05 08:56:06;;;;;;;;;;;973.00;1305.60;;;;;;5093009;28;19915;-68
2022/07/05 08:58:32;;;;;;;;;;;948.10;1305.60;;;;;;5092967;28;19959;-60
2022/07/05 09:00:58;;;;;;;;;;;947.70;1305.60;;;;;;5092304;28;19963;-68
2022/07/05 09:03:26;;;;;;;;;;;947.70;1305.60;;;;;;5092515;28;19965;-62
2022/07/05 09:05:54;;;;;;;;;;;947.60;1331.20;;;;;;5092822;28;20034;-61
2022/07/05 09:08:21;;;;;;;;;;;947.80;1305.60;;;;;;5092935;28;19915;-69
2022/07/05 09:10:46;;;;;;;;;;;947.70;1305.60;;;;;;5092498;28;19909;-67
2022/07/05 09:13:12;;;;;;;;;;;948.00;1280.00;;;;;;5092514;28;19953;-68
2022/07/05 09:15:38;;;;;;;;;;;947.30;1331.20;;;;;;5092646;28;19999;-67
2022/07/05 09:18:04;;;;;;;;;;;947.20;1331.20;;;;;;5092473;28;19912;-63
2022/07/05 09:20:29;;;;;;;;;;;947.30;1305.60;;;;;;5092337;28;20410;-64
2022/07/05 09:22:55;;;;;;;;;;;947.40;1331.20;;;;;;5092442;28;19912;-64
2022/07/05 09:25:22;;;;;;;;;;;947.90;1331.20;;;;;;5092392;28;19908;-67
2022/07/05 09:27:48;;;;;;;;;;;972.80;1356.80;;;;;;5092134;28;19999;-66
2022/07/05 09:30:24;;;;;;;;;;;948.10;1356.80;;;;;;5091875;28;19913;-65
2022/07/05 09:32:59;;;;;;;;;;;948.00;1356.80;;;;;;5092181;28;19918;-61
2022/07/05 09:35:25;;;;;;;;;;;972.90;1356.80;;;;;;5091892;28;19908;-65
2022/07/05 09:37:51;;;;;;;;;;;948.10;1331.20;;;;;;5090699;28;20206;-66
2022/07/05 09:40:17;;;;;;;;;;;947.90;1331.20;;;;;;5090978;28;20377;-68
2022/07/05 09:42:42;;;;;;;;;;;947.80;1305.60;;;;;;5090697;28;19923;-65
2022/07/05 09:45:08;;;;;;;;;;;972.90;1356.80;;;;;;5091205;28;19908;-67
2022/07/05 09:47:33;;;;;;;;;;;973.30;1305.60;;;;;;5090615;28;19913;-68
2022/07/05 09:50:06;;;;;;;;;;;973.50;1280.00;;;;;;5090417;28;20377;-64
2022/07/05 09:52:39;;;;;;;;;;;973.00;1254.40;;;;;;5090369;28;20342;-61
2022/07/05 09:55:08;;;;;;;;;;;948.10;1254.40;;;;;;5091498;28;19908;-61
2022/07/05 09:57:35;;;;;;;;;;;947.70;1254.40;;;;;;5090339;28;19962;-63
2022/07/05 10:00:03;;;;;;;;;;;972.80;1305.60;;;;;;5087375;28;19920;-61
2022/07/05 10:02:44;;;;;;;;;;;947.80;1331.20;;;;;;5089877;28;19928;-64
2022/07/05 10:05:11;;;;;;;;;;;972.80;1305.60;;;;;;5087662;28;19915;-62
2022/07/05 10:07:40;;;;;;;;;;;948.10;1331.20;;;;;;5088017;28;20003;-64
2022/07/05 10:10:06;;;;;;;;;;;947.90;1305.60;;;;;;5087358;28;19927;-62
2022/07/05 10:12:33;;;;;;;;;;;947.90;1305.60;;;;;;5088788;28;19912;-63
2022/07/05 10:14:59;;;;;;;;;;;947.80;1280.00;;;;;;5088313;28;20308;-63
2022/07/05 10:17:26;;;;;;;;;;;947.30;1331.20;;;;;;5088368;28;20019;-64
2022/07/05 10:19:52;;;;;;;;;;;947.60;1305.60;;;;;;5088061;28;19912;-63
2022/07/05 10:22:18;;;;;;;;;;;947.50;1305.60;;;;;;5088229;28;19924;-62
2022/07/05 10:24:44;;;;;;;;;;;947.60;1280.00;;;;;;5088674;28;19908;-64
2022/07/05 10:27:10;;;;;;;;;;;947.70;1280.00;;;;;;5088363;28;20282;-62
2022/07/05 10:29:36;;;;;;;;;;;947.80;1305.60;;;;;;5088063;28;19961;-64
2022/07/05 10:32:03;;;;;;;;;;;947.80;1305.60;;;;;;5086968;28;19971;-65
2022/07/05 10:34:32;;;;;;;;;;;947.60;1280.00;;;;;;5087526;28;19997;-63
2022/07/05 10:36:57;;;;;;;;;;;947.70;1280.00;;;;;;5088002;28;19916;-64
2022/07/05 10:39:25;;;;;;;;;;;947.70;1305.60;;;;;;5088358;28;20045;-63
2022/07/05 10:41:51;;;;;;;;;;;948.10;1331.20;;;;;;5088260;28;19941;-65
2022/07/05 10:44:30;;;;;;;;;;;948.10;1305.60;;;;;;5087180;28;19916;-64
2022/07/05 10:47:06;;;;;;;;;;;947.90;1254.40;;;;;;5088142;28;19909;-65
2022/07/05 10:49:32;;;;;;;;;;;947.80;1280.00;;;;;;5089564;28;19955;-62
2022/07/05 10:51:58;;;;;;;;;;;947.60;1280.00;;;;;;5089182;28;20533;-63
2022/07/05 10:54:23;;;;;;;;;;;947.50;1280.00;;;;;;5089329;28;19912;-62
2022/07/05 10:57:08;;;;;;;;;;;947.90;1331.20;;;;;;5089313;28;19916;-64
2022/07/05 10:59:53;;;;;;;;;;;948.10;1280.00;;;;;;5088592;28;20004;-64
2022/07/05 11:02:19;;;;;;;;;;;972.90;1280.00;;;;;;5089078;28;20369;-62
2022/07/05 11:04:44;;;;;;;;;;;972.80;1254.40;;;;;;5088860;28;20053;-65
2022/07/05 11:07:10;;;;;;;;;;;972.90;1228.80;;;;;;5089115;28;19908;-64
2022/07/05 11:09:36;;;;;;;;;;;973.10;1280.00;;;;;;5088922;28;19915;-64
2022/07/05 11:12:04;;;;;;;;;;;973.20;1280.00;;;;;;5088548;28;19912;-62
2022/07/05 11:14:31;;;;;;;;;;;973.20;1254.40;;;;;;5089264;28;19908;-63
2022/07/05 11:17:11;;;;;;;;;;;973.30;1228.80;;;;;;5088741;28;19912;-62
2022/07/05 11:19:55;;;;;;;;;;;973.20;1228.80;;;;;;5088916;28;19908;-62
2022/07/05 11:22:21;;;;;;;;;;;973.20;1254.40;;;;;;5088946;28;19967;-63
2022/07/05 11:24:47;;;;;;;;;;;973.20;1228.80;;;;;;5088563;28;19954;-64
2022/07/05 11:27:12;;;;;;;;;;;973.00;1203.20;;;;;;5089015;28;20384;-63
2022/07/05 11:29:45;;;;;;;;;;;973.00;1228.80;;;;;;5088598;28;20362;-62
2022/07/05 11:32:13;;;;;;;;;;;972.90;1254.40;;;;;;5088920;28;20398;-61
2022/07/05 11:34:39;;;;;;;;;;;948.10;1280.00;;;;;;5088615;28;19912;-62
2022/07/05 11:37:13;;;;;;;;;;;947.70;1280.00;;;;;;5088648;28;19919;-64
2022/07/05 11:39:42;;;;;;;;;;;947.50;1280.00;;;;;;5088535;28;20358;-62
2022/07/05 11:42:08;;;;;;;;;;;947.30;1331.20;;;;;;5088743;28;19920;-62
2022/07/05 11:44:34;;;;;;;;;;;947.20;1356.80;;;;;;5088828;28;20369;-62
2022/07/05 11:47:00;;;;;;;;;;;922.40;1382.40;;;;;;5088881;28;19908;-64
2022/07/05 11:49:26;;;;;;;;;;;922.40;1382.40;;;;;;5088461;28;19999;-62
2022/07/05 11:52:01;;;;;;;;;;;922.10;1408.00;;;;;;5088321;28;20057;-62
2022/07/05 11:54:27;;;;;;;;;;;922.10;1382.40;;;;;;5088608;28;19908;-64
2022/07/05 11:56:53;;;;;;;;;;;922.10;1408.00;;;;;;5089164;28;19935;-64
2022/07/05 11:59:22;;;;;;;;;;;922.20;1408.00;;;;;;5088943;28;20303;-62
2022/07/05 12:01:48;;;;;;;;;;;922.10;1382.40;;;;;;5092258;28;19920;-62
2022/07/05 12:04:24;;;;;;;;;;;922.20;1408.00;;;;;;5091945;28;19912;-62
2022/07/05 12:06:50;;;;;;;;;;;921.80;1408.00;;;;;;5093302;28;19908;-62
2022/07/05 12:09:21;;;;;;;;;;;896.90;1433.60;;;;;;5093918;28;20258;-64
2022/07/05 12:14:35;;;;;;;;;;;922.10;1433.60;;;;;;5093999;28;20270;-62
2022/07/05 12:17:14;;;;;;;;;;;922.00;1459.20;;;;;;5091643;28;19912;-62
2022/07/05 12:19:40;;;;;;;;;;;922.00;1484.80;;;;;;5092365;28;20223;-63
2022/07/05 12:22:05;;;;;;;;;;;922.00;1510.40;;;;;;5091782;28;19923;-64
2022/07/05 12:24:31;;;;;;;;;;;922.00;1510.40;;;;;;5092090;28;19916;-62
2022/07/05 12:26:57;;;;;;;;;;;921.90;1510.40;;;;;;5091795;28;19934;-61
2022/07/05 12:29:22;;;;;;;;;;;921.60;1536.00;;;;;;5091273;28;19926;-62
2022/07/05 12:31:58;;;;;;;;;;;921.60;1561.60;;;;;;5092054;28;19965;-63
2022/07/05 12:34:24;;;;;;;;;;;896.90;1536.00;;;;;;5091744;28;19908;-61
2022/07/05 12:36:49;;;;;;;;;;;896.80;1536.00;;;;;;5094039;28;19993;-64
2022/07/05 12:39:16;;;;;;;;;;;896.70;1536.00;;;;;;5093405;28;19908;-64
2022/07/05 12:41:42;;;;;;;;;;;896.90;1536.00;;;;;;5093138;28;20023;-63
2022/07/05 12:44:08;;;;;;;;;;;921.70;1536.00;;;;;;5093077;28;19939;-69
2022/07/05 12:46:37;;;;;;;;;;;921.60;1561.60;;;;;;5092895;28;19916;-64
2022/07/05 12:49:03;;;;;;;;;;;921.60;1536.00;;;;;;5093473;28;19923;-64
2022/07/05 12:51:33;;;;;;;;;;;921.80;1561.60;;;;;;5093055;28;19908;-64
2022/07/05 12:59:30;;;;;;;;;;;896.90;1536.00;;;;;;5092911;28;19923;-64
2022/07/05 13:01:56;;;;;;;;;;;896.60;1536.00;;;;;;5092661;28;20364;-64
2022/07/05 13:04:22;;;;;;;;;;;896.60;1536.00;;;;;;5092949;28;19912;-63
2022/07/05 13:06:48;;;;;;;;;;;896.10;1587.20;;;;;;5092661;28;19912;-64
2022/07/05 13:09:15;;;;;;;;;;;871.30;1587.20;;;;;;5092426;28;19915;-63
2022/07/05 13:11:40;;;;;;;;;;;871.20;1612.80;;;;;;5089719;28;19912;-64
2022/07/05 13:14:06;;;;;;;;;;;871.10;1587.20;;;;;;5091186;28;19912;-63
2022/07/05 13:16:31;;;;;;;;;;;870.80;1612.80;;;;;;5091172;28;19919;-65
2022/07/05 13:19:12;;;;;;;;;;;870.50;1638.40;;;;;;5090679;28;19912;-64
2022/07/05 13:21:38;;;;;;;;;;;845.70;1638.40;;;;;;5090766;28;20379;-65
2022/07/05 13:24:04;;;;;;;;;;;845.60;1638.40;;;;;;5090216;28;20004;-64
2022/07/05 13:26:30;;;;;;;;;;;845.30;1664.00;;;;;;5091282;28;20554;-63
2022/07/05 13:28:56;;;;;;;;;;;845.20;1664.00;;;;;;5090888;28;19914;-64
2022/07/05 13:31:21;;;;;;;;;;;844.90;1664.00;;;;;;5091427;28;20008;-66
2022/07/05 13:33:47;;;;;;;;;;;820.00;1689.60;;;;;;5092426;28;19999;-63
2022/07/05 13:36:12;;;;;;;;;;;820.10;1689.60;;;;;;5092254;28;19909;-63
2022/07/05 13:38:38;;;;;;;;;;;819.80;1689.60;;;;;;5092012;28;20354;-63
2022/07/05 13:41:03;;;;;;;;;;;819.80;1715.20;;;;;;5092009;28;19969;-64
2022/07/05 13:43:29;;;;;;;;;;;819.60;1715.20;;;;;;5092379;28;19935;-63
2022/07/05 13:45:54;;;;;;;;;;;819.50;1715.20;;;;;;5092066;28;20010;-63
2022/07/05 13:48:20;;;;;;;;;;;819.40;1715.20;;;;;;5092171;28;20308;-63
2022/07/05 13:50:45;;;;;;;;;;;819.30;1740.80;;;;;;5091707;28;20300;-63
2022/07/05 13:53:11;;;;;;;;;;;819.30;1740.80;;;;;;5091983;28;20003;-63